createdAt,value
2023-02-06T00:01:01.323Z,3.67
2023-02-06T00:03:29.951Z,3.70
2023-02-06T00:05:58.732Z,2.47
2023-02-06T00:08:27.174Z,4.50
2023-02-06T00:10:56.896Z,3.13
2023-02-06T00:13:25.259Z,3.67
2023-02-06T00:15:53.581Z,3.15
2023-02-06T00:18:21.894Z,2.47
2023-02-06T00:20:50.382Z,4.25
2023-02-06T00:23:18.853Z,3.40
2023-02-06T00:25:47.335Z,4.38
2023-02-06T00:28:16.987Z,2.97
2023-02-06T00:30:47.655Z,2.22
2023-02-06T00:33:16.149Z,4.28
2023-02-06T00:35:44.421Z,2.67
2023-02-06T00:38:13.299Z,2.90
2023-02-06T00:40:41.584Z,3.35
2023-02-06T00:43:09.806Z,2.55
2023-02-06T00:45:39.489Z,3.80
2023-02-06T00:48:09.243Z,3.65
2023-02-06T00:50:38.147Z,3.08
2023-02-06T00:53:06.373Z,3.58
2023-02-06T00:55:34.963Z,3.40
2023-02-06T00:58:03.392Z,2.70
2023-02-06T01:00:31.745Z,2.88
2023-02-06T01:03:01.497Z,3.55
2023-02-06T01:05:30.050Z,3.35
2023-02-06T01:07:58.424Z,3.33
2023-02-06T01:10:27.233Z,2.95
2023-02-06T01:12:55.499Z,3.70
2023-02-06T01:15:23.767Z,3.53
2023-02-06T01:17:52.409Z,3.13
2023-02-06T01:20:23.880Z,3.75
2023-02-06T01:22:52.778Z,2.22
2023-02-06T01:25:21.193Z,2.65
2023-02-06T01:27:50.032Z,2.92
2023-02-06T01:30:18.347Z,2.53
2023-02-06T01:32:46.765Z,2.65
2023-02-06T01:35:17.150Z,2.20
2023-02-06T01:37:46.779Z,3.90
2023-02-06T01:40:16.401Z,2.35
2023-02-06T01:42:44.826Z,3.22
2023-02-06T01:45:29.140Z,3.35
2023-02-06T01:47:59.531Z,1.88
2023-02-06T01:50:28.079Z,2.38
2023-02-06T01:52:57.826Z,2.83
2023-02-06T01:55:26.185Z,2.25
2023-02-06T01:57:54.659Z,3.05
2023-02-06T02:00:23.062Z,2.53
2023-02-06T02:02:51.883Z,2.53
2023-02-06T02:05:21.062Z,1.88
2023-02-06T02:07:51.872Z,2.15
2023-02-06T02:10:21.679Z,2.38
2023-02-06T02:12:50.075Z,2.25
2023-02-06T02:15:18.448Z,2.22
2023-02-06T02:17:51.836Z,2.38
2023-02-06T02:20:34.686Z,2.38
2023-02-06T02:23:07.040Z,2.50
2023-02-06T02:25:50.315Z,3.67
2023-02-06T02:28:39.513Z,2.00
2023-02-06T02:31:25.426Z,2.17
2023-02-06T02:34:09.089Z,2.70
2023-02-06T02:36:42.728Z,2.38
2023-02-06T02:39:14.493Z,2.17
2023-02-06T02:41:46.262Z,2.53
2023-02-06T02:44:20.861Z,2.28
2023-02-06T02:46:51.789Z,3.58
2023-02-06T02:49:21.797Z,2.63
2023-02-06T02:51:52.880Z,2.22
2023-02-06T02:54:21.533Z,2.97
2023-02-06T02:56:49.825Z,2.63
2023-02-06T02:59:23.948Z,3.10
2023-02-06T03:01:56.032Z,2.28
2023-02-06T03:04:26.366Z,2.88
2023-02-06T03:07:13.570Z,2.65
2023-02-06T03:09:47.559Z,2.75
2023-02-06T03:12:21.287Z,3.03
2023-02-06T03:14:52.503Z,2.25
2023-02-06T03:17:22.971Z,1.75
2023-02-06T03:19:53.609Z,2.75
2023-02-06T03:22:25.594Z,2.70
2023-02-06T03:24:54.711Z,3.33
2023-02-06T03:27:24.424Z,2.20
2023-02-06T03:29:54.748Z,4.22
2023-02-06T03:32:26.655Z,2.42
2023-02-06T03:34:57.440Z,2.42
2023-02-06T03:37:28.057Z,2.05
2023-02-06T03:39:56.859Z,1.77
2023-02-06T03:42:25.776Z,1.95
2023-02-06T03:44:57.397Z,2.05
2023-02-06T03:47:26.096Z,2.28
2023-02-06T03:49:54.945Z,3.03
2023-02-06T03:52:25.687Z,3.53
2023-02-06T03:54:59.869Z,2.65
2023-02-06T03:57:29.649Z,2.42
2023-02-06T03:59:57.966Z,2.60
2023-02-06T04:02:27.456Z,2.55
2023-02-06T04:04:55.879Z,1.75
2023-02-06T04:07:25.106Z,2.45
2023-02-06T04:09:53.753Z,2.90
2023-02-06T04:12:23.856Z,2.13
2023-02-06T04:14:54.102Z,2.55
2023-02-06T04:17:40.539Z,2.40
2023-02-06T04:20:11.601Z,2.20
2023-02-06T04:22:40.138Z,2.70
2023-02-06T04:25:08.845Z,2.58
2023-02-06T04:27:38.697Z,2.50
2023-02-06T04:30:07.718Z,2.65
2023-02-06T04:32:35.975Z,2.15
2023-02-06T04:35:04.436Z,3.42
2023-02-06T04:37:32.681Z,2.25
2023-02-06T04:40:00.975Z,2.63
2023-02-06T04:42:29.707Z,2.65
2023-02-06T04:44:59.381Z,1.90
2023-02-06T04:47:27.659Z,2.85
2023-02-06T04:49:56.007Z,2.30
2023-02-06T04:52:24.255Z,2.92
2023-02-06T04:54:52.588Z,3.88
2023-02-06T04:57:20.969Z,2.83
2023-02-06T04:59:49.563Z,2.40
2023-02-06T05:02:19.272Z,2.45
2023-02-06T05:04:48.048Z,3.15
2023-02-06T05:07:16.279Z,3.47
2023-02-06T05:09:44.505Z,2.40
2023-02-06T05:12:14.340Z,2.78
2023-02-06T05:14:42.823Z,2.15
2023-02-06T05:17:11.070Z,2.33
2023-02-06T05:19:40.839Z,3.05
2023-02-06T05:22:09.418Z,2.88
2023-02-06T05:24:37.788Z,4.13
2023-02-06T05:27:06.174Z,2.55
2023-02-06T05:29:34.483Z,2.60
2023-02-06T05:32:02.765Z,3.25
2023-02-06T05:34:31.078Z,2.78
2023-02-06T05:37:00.816Z,2.92
2023-02-06T05:39:29.399Z,2.17
2023-02-06T05:41:57.607Z,2.80
2023-02-06T05:44:26.117Z,2.25
2023-02-06T05:46:55.003Z,2.42
2023-02-06T05:49:23.360Z,2.30
2023-02-06T05:51:52.118Z,2.08
2023-02-06T05:54:21.967Z,2.33
2023-02-06T05:56:50.247Z,3.03
2023-02-06T05:59:18.623Z,2.70
2023-02-06T06:01:46.844Z,1.83
2023-02-06T06:04:15.631Z,2.50
2023-02-06T06:06:44.085Z,2.35
2023-02-06T06:09:12.261Z,2.95
2023-02-06T06:11:44.301Z,2.08
2023-02-06T06:14:12.939Z,2.55
2023-02-06T06:16:42.637Z,3.35
2023-02-06T06:19:11.241Z,2.83
2023-02-06T06:21:39.602Z,2.33
2023-02-06T06:24:08.086Z,3.33
2023-02-06T06:26:36.500Z,2.10
2023-02-06T06:29:06.200Z,2.38
2023-02-06T06:31:34.493Z,2.50
2023-02-06T06:34:02.890Z,2.97
2023-02-06T06:36:31.186Z,2.78
2023-02-06T06:38:59.357Z,2.92
2023-02-06T06:41:27.677Z,2.67
2023-02-06T06:43:57.181Z,2.85
2023-02-06T06:46:26.842Z,3.00
2023-02-06T06:48:55.371Z,2.85
2023-02-06T06:51:29.332Z,2.38
2023-02-06T06:53:57.779Z,2.78
2023-02-06T06:56:26.986Z,2.58
2023-02-06T06:58:55.668Z,2.35
2023-02-06T07:01:24.161Z,2.45
2023-02-06T07:03:54.075Z,2.47
2023-02-06T07:06:22.722Z,2.00
2023-02-06T07:08:51.142Z,2.28
2023-02-06T07:11:19.811Z,2.03
2023-02-06T07:13:48.262Z,2.60
2023-02-06T07:16:16.700Z,3.08
2023-02-06T07:18:45.029Z,2.60
2023-02-06T07:21:15.925Z,2.40
2023-02-06T07:23:44.378Z,2.30
2023-02-06T07:26:12.855Z,1.92
2023-02-06T07:28:42.173Z,3.08
2023-02-06T07:31:10.442Z,2.33
2023-02-06T07:33:38.709Z,2.30
2023-02-06T07:36:07.258Z,2.97
2023-02-06T07:38:36.953Z,3.05
2023-02-06T07:41:05.277Z,2.85
2023-02-06T07:43:33.836Z,2.17
2023-02-06T07:46:02.308Z,2.75
2023-02-06T07:48:30.929Z,2.38
2023-02-06T07:50:59.775Z,2.35
2023-02-06T07:53:28.042Z,3.03
2023-02-06T07:55:57.632Z,2.55
2023-02-06T07:58:26.620Z,1.90
2023-02-06T08:00:54.995Z,2.38
2023-02-06T08:03:23.519Z,2.22
2023-02-06T08:05:51.917Z,1.95
2023-02-06T08:08:20.596Z,3.30
2023-02-06T08:10:49.762Z,2.65
2023-02-06T08:13:19.802Z,2.67
2023-02-06T08:15:48.275Z,2.47
2023-02-06T08:18:16.692Z,2.55
2023-02-06T08:20:45.132Z,2.67
2023-02-06T08:23:13.630Z,3.03
2023-02-06T08:25:41.993Z,2.78
2023-02-06T08:28:14.934Z,4.28
2023-02-06T08:30:44.854Z,2.33
2023-02-06T08:33:13.498Z,2.38
2023-02-06T08:35:42.001Z,2.92
2023-02-06T08:38:10.386Z,2.80
2023-02-06T08:40:38.688Z,2.40
2023-02-06T08:43:06.950Z,3.53
2023-02-06T08:45:35.710Z,2.58
2023-02-06T08:48:05.491Z,3.47
2023-02-06T08:50:34.770Z,3.97
2023-02-06T08:53:03.379Z,3.10
2023-02-06T08:55:31.746Z,2.80
2023-02-06T08:57:59.995Z,3.67
2023-02-06T09:00:28.527Z,3.20
2023-02-06T09:02:56.850Z,3.78
2023-02-06T09:05:26.688Z,2.90
2023-02-06T09:07:55.223Z,2.47
2023-02-06T09:10:27.853Z,5.03
2023-02-06T09:12:57.762Z,3.60
2023-02-06T09:15:26.197Z,3.20
2023-02-06T09:17:54.497Z,3.17
2023-02-06T09:20:26.601Z,2.70
2023-02-06T09:22:56.269Z,4.30
2023-02-06T09:25:24.638Z,3.35
2023-02-06T09:27:55.626Z,2.63
2023-02-06T09:30:24.505Z,3.97
2023-02-06T09:32:52.937Z,3.40
2023-02-06T09:35:21.210Z,2.95
2023-02-06T09:37:49.704Z,4.35
2023-02-06T09:40:24.109Z,3.50
2023-02-06T09:42:53.499Z,3.65
2023-02-06T09:45:23.397Z,3.47
2023-02-06T09:47:53.167Z,3.58
2023-02-06T09:50:25.663Z,3.28
2023-02-06T09:52:59.651Z,3.72
2023-02-06T09:55:32.053Z,3.67
2023-02-06T09:58:03.010Z,3.33
2023-02-06T10:00:36.863Z,3.42
2023-02-06T10:03:13.376Z,3.65
2023-02-06T10:05:48.624Z,2.95
2023-02-06T10:08:21.006Z,3.28
2023-02-06T10:10:52.636Z,2.78
2023-02-06T10:13:23.588Z,3.17
2023-02-06T10:15:53.407Z,3.33
2023-02-06T10:18:25.944Z,3.70
2023-02-06T10:20:55.478Z,4.32
2023-02-06T10:23:25.842Z,3.15
2023-02-06T10:26:01.555Z,4.47
2023-02-06T10:28:31.029Z,4.18
2023-02-06T10:31:04.356Z,3.80
2023-02-06T10:33:36.042Z,4.05
2023-02-06T10:36:08.065Z,3.83
2023-02-06T10:38:53.999Z,3.05
2023-02-06T10:41:30.944Z,4.00
2023-02-06T10:44:01.141Z,3.17
2023-02-06T10:46:39.672Z,3.45
2023-02-06T10:49:12.370Z,4.28
2023-02-06T10:51:43.244Z,3.45
2023-02-06T10:54:18.143Z,3.05
2023-02-06T10:56:50.028Z,3.13
2023-02-06T10:59:23.620Z,3.78
2023-02-06T11:01:53.339Z,2.47
2023-02-06T11:04:23.262Z,3.10
2023-02-06T11:06:54.697Z,3.05
2023-02-06T11:09:23.053Z,4.03
2023-02-06T11:11:55.141Z,4.30
2023-02-06T11:14:26.560Z,2.90
2023-02-06T11:16:55.209Z,2.28
2023-02-06T11:19:27.014Z,3.85
2023-02-06T11:21:56.766Z,2.90
2023-02-06T11:24:26.342Z,3.20
2023-02-06T11:26:57.453Z,3.00
2023-02-06T11:29:27.111Z,3.75
2023-02-06T11:31:58.624Z,2.58
2023-02-06T11:34:32.152Z,2.33
2023-02-06T11:37:01.916Z,1.80
2023-02-06T11:39:31.338Z,2.15
2023-02-06T11:42:02.707Z,2.67
2023-02-06T11:44:36.655Z,2.92
2023-02-06T11:47:38.293Z,2.85
2023-02-06T11:50:18.730Z,3.03
2023-02-06T11:52:48.031Z,3.25
2023-02-06T11:55:22.675Z,3.05
2023-02-06T11:58:04.597Z,2.70
2023-02-06T12:00:33.332Z,3.22
2023-02-06T12:03:01.596Z,3.05
2023-02-06T12:05:34.395Z,3.38
2023-02-06T12:08:04.101Z,3.22
2023-02-06T12:10:34.877Z,3.30
2023-02-06T12:13:08.318Z,2.88
2023-02-06T12:15:46.621Z,3.00
2023-02-06T12:18:18.512Z,3.20
2023-02-06T12:20:51.082Z,4.50
2023-02-06T12:23:22.652Z,4.53
2023-02-06T12:25:52.397Z,3.17
2023-02-06T12:28:24.417Z,3.80
2023-02-06T12:30:55.845Z,2.83
2023-02-06T12:33:33.326Z,2.47
2023-02-06T12:36:05.981Z,3.50
2023-02-06T12:38:40.107Z,3.42
2023-02-06T12:41:20.994Z,3.63
2023-02-06T12:43:53.504Z,3.65
2023-02-06T12:46:23.442Z,2.22
2023-02-06T12:48:55.134Z,2.90
2023-02-06T12:51:25.793Z,3.22
2023-02-06T12:53:55.722Z,2.38
2023-02-06T12:56:26.808Z,2.95
2023-02-06T12:58:59.881Z,2.38
2023-02-06T13:01:45.233Z,3.33
2023-02-06T13:04:14.874Z,2.70
2023-02-06T13:06:50.353Z,3.33
2023-02-06T13:09:22.457Z,3.33
2023-02-06T13:11:51.331Z,3.20
2023-02-06T13:14:22.916Z,3.83
2023-02-06T13:16:55.333Z,2.42
2023-02-06T13:19:25.744Z,2.78
2023-02-06T13:21:54.807Z,2.88
2023-02-06T13:24:23.492Z,2.80
2023-02-06T13:27:15.973Z,2.67
2023-02-06T13:29:46.705Z,2.15
2023-02-06T13:32:41.896Z,2.33
2023-02-06T13:35:22.926Z,2.42
2023-02-06T13:37:52.292Z,2.30
2023-02-06T13:40:32.286Z,2.17
2023-02-06T13:43:03.145Z,2.88
2023-02-06T13:45:33.468Z,2.50
2023-02-06T13:48:32.303Z,2.40
2023-02-06T13:51:12.982Z,1.90
2023-02-06T13:53:54.761Z,1.67
2023-02-06T13:56:34.906Z,2.05
2023-02-06T13:59:07.442Z,2.47
2023-02-06T14:01:37.753Z,2.35
2023-02-06T14:04:09.618Z,2.40
2023-02-06T14:06:47.758Z,2.15
2023-02-06T14:09:30.673Z,2.55
2023-02-06T14:12:23.452Z,2.90
2023-02-06T14:15:08.745Z,2.45
2023-02-06T14:17:49.564Z,1.70
2023-02-06T14:20:22.402Z,2.00
2023-02-06T14:22:54.062Z,2.03
2023-02-06T14:25:39.321Z,2.80
2023-02-06T14:28:10.886Z,1.75
2023-02-06T14:30:44.076Z,2.22
2023-02-06T14:33:23.081Z,1.48
2023-02-06T14:35:57.428Z,1.40
2023-02-06T14:38:35.733Z,2.15
2023-02-06T14:41:04.552Z,1.40
2023-02-06T14:43:35.232Z,1.98
2023-02-06T14:46:08.073Z,1.42
2023-02-06T14:48:40.520Z,2.28
2023-02-06T14:51:09.724Z,1.73
2023-02-06T14:53:39.020Z,1.38
2023-02-06T14:56:08.471Z,2.63
2023-02-06T14:58:37.038Z,1.25
2023-02-06T15:01:20.945Z,2.17
2023-02-06T15:03:52.643Z,1.65
2023-02-06T15:06:31.227Z,1.80
2023-02-06T15:08:59.694Z,2.13
2023-02-06T15:11:32.498Z,2.05
2023-02-06T15:14:01.717Z,1.75
2023-02-06T15:16:30.931Z,1.75
2023-02-06T15:19:13.724Z,1.55
2023-02-06T15:21:45.652Z,1.95
2023-02-06T15:24:22.399Z,1.70
2023-02-06T15:26:54.896Z,1.50
2023-02-06T15:29:26.850Z,1.77
2023-02-06T15:31:56.667Z,1.77
2023-02-06T15:34:26.652Z,1.77
2023-02-06T15:36:54.993Z,1.33
2023-02-06T15:39:23.803Z,1.42
2023-02-06T15:41:53.501Z,2.05
2023-02-06T15:44:26.477Z,1.88
2023-02-06T15:46:58.464Z,2.17
2023-02-06T15:49:37.079Z,1.92
2023-02-06T15:52:05.990Z,1.77
2023-02-06T15:54:34.332Z,2.78
2023-02-06T15:57:04.657Z,2.90
2023-02-06T15:59:34.877Z,2.28
2023-02-06T16:02:04.680Z,2.45
2023-02-06T16:04:35.276Z,1.27
2023-02-06T16:07:18.056Z,2.08
2023-02-06T16:09:51.123Z,1.85
2023-02-06T16:12:21.284Z,2.45
2023-02-06T16:14:54.643Z,2.47
2023-02-06T16:17:29.317Z,3.35
2023-02-06T16:19:59.886Z,2.13
2023-02-06T16:22:30.929Z,2.50
2023-02-06T16:25:15.375Z,2.15
2023-02-06T16:27:44.614Z,2.55
2023-02-06T16:30:21.503Z,2.42
2023-02-06T16:32:49.959Z,2.00
2023-02-06T16:35:18.527Z,2.08
2023-02-06T16:37:49.768Z,2.40
2023-02-06T16:40:18.370Z,1.60
2023-02-06T16:42:47.651Z,2.53
2023-02-06T16:45:18.780Z,2.08
2023-02-06T16:47:47.430Z,2.20
2023-02-06T16:50:15.862Z,3.22
2023-02-06T16:52:50.163Z,2.65
2023-02-06T16:55:22.884Z,2.50
2023-02-06T16:57:53.474Z,1.80
2023-02-06T17:00:22.964Z,1.88
2023-02-06T17:02:52.933Z,2.25
2023-02-06T17:05:21.873Z,1.42
2023-02-06T17:07:50.850Z,2.17
2023-02-06T17:10:22.780Z,3.10
2023-02-06T17:12:54.245Z,1.58
2023-02-06T17:15:23.152Z,2.70
2023-02-06T17:17:53.761Z,1.70
2023-02-06T17:20:31.748Z,1.95
2023-02-06T17:23:00.428Z,1.92
2023-02-06T17:25:30.187Z,2.50
2023-02-06T17:27:58.546Z,2.33
2023-02-06T17:30:27.477Z,2.38
2023-02-06T17:32:56.277Z,2.20
2023-02-06T17:35:24.557Z,2.30
2023-02-06T17:37:53.439Z,1.60
2023-02-06T17:40:24.181Z,2.15
2023-02-06T17:42:54.043Z,2.17
2023-02-06T17:45:22.743Z,2.22
2023-02-06T17:47:51.031Z,2.08
2023-02-06T17:50:22.833Z,2.22
2023-02-06T17:52:52.757Z,2.20
2023-02-06T17:55:21.179Z,1.92
2023-02-06T17:57:49.598Z,2.53
2023-02-06T18:00:22.196Z,4.40
2023-02-06T18:02:50.884Z,3.40
2023-02-06T18:05:19.618Z,2.65
2023-02-06T18:07:50.848Z,2.40
2023-02-06T18:10:19.724Z,3.95
2023-02-06T18:12:48.210Z,2.63
2023-02-06T18:15:16.796Z,3.00
2023-02-06T18:17:46.433Z,3.15
2023-02-06T18:20:15.409Z,2.40
2023-02-06T18:22:46.511Z,1.90
2023-02-06T18:25:16.077Z,2.42
2023-02-06T18:27:46.084Z,2.20
2023-02-06T18:30:15.619Z,2.38
2023-02-06T18:32:44.109Z,2.58
2023-02-06T18:35:14.764Z,2.35
2023-02-06T18:37:43.217Z,3.20
2023-02-06T18:40:11.959Z,3.97
2023-02-06T18:42:51.664Z,4.40
2023-02-06T18:45:20.813Z,5.05
2023-02-06T18:47:51.292Z,3.80
2023-02-06T18:50:22.245Z,3.72
2023-02-06T18:52:51.050Z,2.97
2023-02-06T18:55:19.650Z,2.90
2023-02-06T18:57:48.058Z,3.25
2023-02-06T19:00:17.847Z,4.30
2023-02-06T19:02:46.223Z,3.38
2023-02-06T19:05:14.852Z,3.28
2023-02-06T19:07:44.767Z,3.50
2023-02-06T19:10:16.128Z,3.53
2023-02-06T19:12:45.294Z,3.03
2023-02-06T19:15:14.749Z,3.72
2023-02-06T19:17:43.225Z,4.03
2023-02-06T19:20:12.437Z,3.75
2023-02-06T19:22:40.765Z,5.00
2023-02-06T19:25:14.320Z,4.80
2023-02-06T19:27:46.165Z,4.18
2023-02-06T19:30:17.189Z,3.88
2023-02-06T19:32:45.490Z,3.83
2023-02-06T19:35:15.626Z,3.92
2023-02-06T19:37:43.864Z,3.90
2023-02-06T19:40:21.883Z,4.25
2023-02-06T19:42:50.343Z,3.50
2023-02-06T19:45:18.680Z,2.88
2023-02-06T19:47:47.334Z,3.75
2023-02-06T19:50:15.690Z,2.78
2023-02-06T19:52:44.009Z,3.15
2023-02-06T19:55:12.397Z,3.70
2023-02-06T19:57:42.065Z,2.90
2023-02-06T20:00:11.100Z,3.13
2023-02-06T20:02:40.265Z,3.13
2023-02-06T20:05:09.057Z,3.17
2023-02-06T20:07:37.582Z,3.67
2023-02-06T20:10:06.543Z,3.40
2023-02-06T20:12:34.955Z,3.40
2023-02-06T20:15:04.771Z,3.28
2023-02-06T20:17:33.008Z,3.53
2023-02-06T20:20:01.378Z,5.20
2023-02-06T20:22:30.188Z,3.47
2023-02-06T20:24:58.721Z,3.58
2023-02-06T20:27:27.707Z,3.90
2023-02-06T20:29:56.143Z,3.80
2023-02-06T20:32:25.945Z,4.90
2023-02-06T20:34:54.313Z,4.13
2023-02-06T20:37:22.768Z,3.65
2023-02-06T20:39:51.222Z,3.22
2023-02-06T20:42:22.334Z,3.22
2023-02-06T20:44:51.424Z,3.97
2023-02-06T20:47:19.802Z,3.20
2023-02-06T20:49:49.675Z,3.40
2023-02-06T20:52:19.249Z,3.63
2023-02-06T20:54:47.923Z,3.58
2023-02-06T20:57:16.411Z,3.97
2023-02-06T20:59:44.717Z,4.03
2023-02-06T21:02:13.062Z,3.85
2023-02-06T21:04:41.323Z,4.13
2023-02-06T21:07:11.060Z,3.95
2023-02-06T21:09:39.331Z,4.00
2023-02-06T21:12:07.647Z,4.70
2023-02-06T21:14:35.923Z,3.70
2023-02-06T21:17:04.203Z,4.80
2023-02-06T21:19:32.408Z,4.38
2023-02-06T21:22:00.738Z,4.85
2023-02-06T21:24:31.528Z,4.00
2023-02-06T21:26:59.815Z,3.70
2023-02-06T21:29:28.204Z,4.05
2023-02-06T21:32:12.263Z,3.33
2023-02-06T21:34:41.886Z,5.13
2023-02-06T21:37:10.255Z,3.67
2023-02-06T21:39:41.082Z,3.85
2023-02-06T21:42:09.660Z,4.03
2023-02-06T21:44:38.124Z,3.72
2023-02-06T21:47:06.504Z,3.85
2023-02-06T21:49:35.015Z,5.35
2023-02-06T21:52:03.403Z,4.15
2023-02-06T21:54:31.766Z,4.68
2023-02-06T21:57:01.572Z,3.88
2023-02-06T21:59:32.627Z,4.20
2023-02-06T22:02:00.864Z,3.58
2023-02-06T22:04:29.281Z,3.90
2023-02-06T22:06:57.594Z,4.35
2023-02-06T22:09:25.904Z,3.78
2023-02-06T22:11:55.730Z,4.20
2023-02-06T22:14:25.317Z,4.13
2023-02-06T22:16:53.614Z,3.58
2023-02-06T22:19:21.981Z,4.28
2023-02-06T22:21:50.882Z,4.78
2023-02-06T22:24:19.497Z,3.90
2023-02-06T22:26:47.965Z,4.38
2023-02-06T22:29:17.339Z,4.30
2023-02-06T22:31:48.384Z,4.55
2023-02-06T22:34:17.318Z,4.22
2023-02-06T22:36:45.634Z,6.03
2023-02-06T22:39:15.180Z,5.05
2023-02-06T22:41:44.722Z,4.70
2023-02-06T22:44:16.517Z,4.47
2023-02-06T22:46:46.029Z,4.50
2023-02-06T22:49:16.004Z,4.53
2023-02-06T22:51:44.426Z,4.15
2023-02-06T22:54:13.407Z,3.95
2023-02-06T22:56:42.643Z,4.50
2023-02-06T22:59:12.488Z,4.40
2023-02-06T23:01:42.045Z,4.07
2023-02-06T23:04:12.720Z,4.50
2023-02-06T23:06:42.821Z,4.28
2023-02-06T23:09:13.770Z,5.50
2023-02-06T23:11:42.155Z,6.07
2023-02-06T23:14:10.620Z,7.10
2023-02-06T23:16:39.112Z,6.53
2023-02-06T23:19:08.100Z,5.95
2023-02-06T23:21:38.589Z,7.50
2023-02-06T23:24:09.465Z,7.45
2023-02-06T23:26:37.963Z,7.10
2023-02-06T23:29:10.946Z,7.90
2023-02-06T23:31:39.386Z,6.72
2023-02-06T23:34:07.743Z,8.10
2023-02-06T23:36:36.139Z,7.00
2023-02-06T23:39:05.296Z,7.88
2023-02-06T23:41:35.351Z,7.00
2023-02-06T23:44:04.709Z,5.82
2023-02-06T23:46:34.528Z,5.97
2023-02-06T23:49:02.933Z,5.43
2023-02-06T23:51:32.582Z,5.97
2023-02-06T23:54:01.102Z,5.95
2023-02-06T23:56:30.485Z,5.63
2023-02-06T23:59:01.371Z,5.00
